createdAt,value
2018-08-20T08:07:09.916Z,85.10
2018-08-20T08:09:38.152Z,99.90
2018-08-20T08:12:07.041Z,99.90
2018-08-20T08:14:35.328Z,99.90
2018-08-20T08:17:03.589Z,99.90
2018-08-20T08:19:31.807Z,99.90
2018-08-20T08:22:00.054Z,99.90
2018-08-20T08:24:28.488Z,99.90
2018-08-20T08:26:56.765Z,99.90
2018-08-20T08:29:25.005Z,99.90
2018-08-20T08:31:53.260Z,99.90
2018-08-20T08:34:21.544Z,99.90
2018-08-20T08:36:49.805Z,99.90
2018-08-20T08:39:18.221Z,99.90
2018-08-20T08:41:46.432Z,99.90
2018-08-20T09:01:30.665Z,99.90
2018-08-20T09:03:58.913Z,98.90
2018-08-20T09:06:27.144Z,98.30
2018-08-20T09:08:55.353Z,98.30
2018-08-20T09:11:24.425Z,98.30
2018-08-20T09:13:52.633Z,98.00
2018-08-20T09:16:21.109Z,98.00
2018-08-20T09:18:49.405Z,97.60
2018-08-20T09:21:17.605Z,97.50
2018-08-20T09:23:45.857Z,97.70
2018-08-20T09:26:14.111Z,97.40
2018-08-20T09:28:42.367Z,97.30
2018-08-20T09:31:10.589Z,97.40
2018-08-20T09:33:38.890Z,97.60
2018-08-20T09:36:07.233Z,97.20
2018-08-20T09:38:35.430Z,97.50
2018-08-20T09:41:03.674Z,97.70
2018-08-20T09:43:31.914Z,98.00
2018-08-20T09:46:02.450Z,98.20
2018-08-20T09:48:34.886Z,98.20
2018-08-20T09:51:03.269Z,98.20
2018-08-20T09:53:31.794Z,98.20
2018-08-20T09:55:59.946Z,98.30
2018-08-20T09:58:28.157Z,98.30
2018-08-20T10:00:56.523Z,98.10
2018-08-20T10:03:24.758Z,98.00
2018-08-20T10:05:53.301Z,97.30
2018-08-20T10:08:21.523Z,97.10
2018-08-20T10:10:50.505Z,96.90
2018-08-20T10:13:18.734Z,96.90
2018-08-20T10:15:46.966Z,96.90
2018-08-20T10:18:15.210Z,96.60
2018-08-20T10:20:43.407Z,96.90
2018-08-20T10:23:11.618Z,96.60
2018-08-20T10:25:39.859Z,96.20
2018-08-20T10:28:08.038Z,96.40
2018-08-20T10:30:36.397Z,96.90
2018-08-20T10:33:04.619Z,97.20
2018-08-20T10:35:32.818Z,97.60
2018-08-20T10:38:01.201Z,97.90
2018-08-20T10:40:29.290Z,98.50
2018-08-20T10:42:57.527Z,98.60
2018-08-20T10:45:31.079Z,98.50
2018-08-20T10:47:59.291Z,98.10
2018-08-20T10:50:27.499Z,97.70
2018-08-20T10:52:55.783Z,97.10
2018-08-20T10:55:23.995Z,97.20
2018-08-20T10:57:52.255Z,97.40
2018-08-20T11:00:20.532Z,97.60
2018-08-20T11:02:48.830Z,97.70
2018-08-20T11:05:18.538Z,98.10
2018-08-20T11:07:46.943Z,97.50
2018-08-20T11:10:15.279Z,97.60
2018-08-20T11:12:43.502Z,97.40
2018-08-20T11:15:11.992Z,96.90
2018-08-20T11:17:40.296Z,96.70
2018-08-20T11:20:11.019Z,96.40
2018-08-20T11:22:39.312Z,96.90
2018-08-20T11:25:08.472Z,96.40
2018-08-20T11:27:36.869Z,96.60
2018-08-20T11:30:05.562Z,96.40
2018-08-20T11:32:33.943Z,96.30
2018-08-20T11:35:02.199Z,96.30
2018-08-20T11:37:30.933Z,96.40
2018-08-20T11:40:02.437Z,96.00
2018-08-20T11:42:31.217Z,96.00
2018-08-20T11:44:59.469Z,96.10
2018-08-20T11:47:27.672Z,96.20
2018-08-20T11:49:55.905Z,96.10
2018-08-20T11:52:24.201Z,96.40
2018-08-20T11:54:53.224Z,95.80
2018-08-20T11:57:21.500Z,95.80
2018-08-20T11:59:49.737Z,95.90
2018-08-20T12:02:18.108Z,95.40
2018-08-20T12:04:46.408Z,94.90
2018-08-20T12:07:14.787Z,95.20
2018-08-20T12:09:42.916Z,94.70
2018-08-20T12:12:11.194Z,94.60
2018-08-20T12:14:39.472Z,93.70
2018-08-20T12:17:07.741Z,93.50
2018-08-20T12:19:35.925Z,93.00
2018-08-20T12:22:04.209Z,92.90
2018-08-20T15:27:22.676Z,86.80
2018-08-20T15:29:51.120Z,87.60
2018-08-20T15:32:19.384Z,88.40
2018-08-20T15:34:47.573Z,89.30
2018-08-20T15:37:15.908Z,89.40
2018-08-20T15:39:44.465Z,90.10
2018-08-20T15:42:12.652Z,89.20
2018-08-20T15:44:40.864Z,88.60
2018-08-20T15:47:09.052Z,88.50
2018-08-20T15:49:37.408Z,88.80
2018-08-20T18:52:55.275Z,89.00
2018-08-20T18:55:23.484Z,95.50
2018-08-20T18:57:51.748Z,95.60
2018-08-20T19:00:20.044Z,95.60
2018-08-20T19:02:55.899Z,95.50
2018-08-20T19:05:24.211Z,95.60
2018-08-20T19:07:52.461Z,95.60
2018-08-20T19:10:25.875Z,95.60
2018-08-20T19:12:54.217Z,95.80
2018-08-20T19:15:36.971Z,95.70
2018-08-20T19:18:06.816Z,95.50
2018-08-20T19:20:35.396Z,95.70
2018-08-20T19:23:03.743Z,95.40
2018-08-20T19:25:31.984Z,95.50
2018-08-20T19:28:02.372Z,95.70
2018-08-20T19:30:32.167Z,95.60
2018-08-20T19:33:01.794Z,95.70
